createdAt,value
2023-05-01T00:01:19.862Z,19.55
2023-05-01T00:06:22.137Z,19.57
2023-05-01T00:11:25.203Z,19.57
2023-05-01T00:16:27.472Z,19.39
2023-05-01T00:21:29.899Z,19.45
2023-05-01T00:26:32.514Z,19.46
2023-05-01T00:31:34.975Z,19.58
2023-05-01T00:36:37.278Z,19.40
2023-05-01T00:41:39.748Z,19.32
2023-05-01T00:46:42.817Z,19.35
2023-05-01T00:51:49.564Z,19.30
2023-05-01T00:56:52.878Z,19.44
2023-05-01T01:01:56.743Z,19.46
2023-05-01T01:07:22.035Z,19.43
2023-05-01T01:12:38.421Z,19.40
2023-05-01T01:17:56.960Z,19.24
2023-05-01T01:23:33.208Z,19.21
2023-05-01T01:28:46.624Z,19.21
2023-05-01T01:33:56.454Z,19.29
2023-05-01T01:39:15.082Z,19.04
2023-05-01T01:44:23.516Z,19.25
2023-05-01T01:49:28.236Z,19.29
2023-05-01T01:54:41.257Z,19.22
2023-05-01T01:59:44.634Z,19.02
2023-05-01T02:04:49.890Z,19.00
2023-05-01T02:09:54.108Z,19.08
2023-05-01T02:14:58.281Z,19.05
2023-05-01T02:20:01.213Z,18.94
2023-05-01T02:25:03.824Z,18.88
2023-05-01T02:30:07.223Z,18.92
2023-05-01T02:35:10.855Z,19.00
2023-05-01T02:40:15.371Z,18.93
2023-05-01T02:45:22.951Z,18.65
2023-05-01T02:50:27.177Z,18.48
2023-05-01T02:55:29.705Z,18.54
2023-05-01T03:00:31.967Z,18.36
2023-05-01T03:05:34.137Z,18.24
2023-05-01T03:10:36.248Z,18.49
2023-05-01T03:15:39.222Z,18.35
2023-05-01T03:20:41.891Z,18.43
2023-05-01T03:25:44.056Z,18.59
2023-05-01T03:30:46.359Z,18.59
2023-05-01T03:35:48.747Z,18.41
2023-05-01T03:40:50.920Z,18.43
2023-05-01T03:45:53.199Z,18.14
2023-05-01T03:50:55.324Z,17.81
2023-05-01T03:55:58.068Z,18.32
2023-05-01T04:01:01.257Z,18.27
2023-05-01T04:06:03.700Z,18.38
2023-05-01T04:11:06.964Z,18.43
2023-05-01T04:16:09.287Z,18.28
2023-05-01T04:21:11.521Z,17.73
2023-05-01T04:26:13.943Z,18.16
2023-05-01T04:31:16.335Z,18.60
2023-05-01T04:36:18.972Z,18.50
2023-05-01T04:41:21.955Z,18.53
2023-05-01T04:46:24.341Z,18.65
2023-05-01T04:51:26.682Z,18.77
2023-05-01T04:56:28.862Z,18.99
2023-05-01T05:01:31.006Z,19.08
2023-05-01T05:06:33.283Z,19.14
2023-05-01T05:11:35.601Z,19.42
2023-05-01T05:16:38.422Z,19.41
2023-05-01T05:21:40.702Z,19.40
2023-05-01T05:26:42.980Z,18.77
2023-05-01T05:31:47.863Z,19.23
2023-05-01T05:36:50.342Z,19.48
2023-05-01T05:41:54.213Z,19.60
2023-05-01T05:46:56.551Z,19.49
2023-05-01T05:51:58.682Z,19.64
2023-05-01T05:57:00.927Z,19.43
2023-05-01T06:02:03.178Z,19.56
2023-05-01T06:07:06.636Z,19.68
2023-05-01T06:12:08.794Z,19.95
2023-05-01T06:17:11.060Z,19.82
2023-05-01T06:22:13.191Z,19.85
2023-05-01T06:27:15.477Z,19.86
2023-05-01T06:32:19.242Z,20.26
2023-05-01T06:37:21.843Z,20.21
2023-05-01T06:42:24.403Z,20.14
2023-05-01T06:47:26.663Z,20.23
2023-05-01T06:52:28.933Z,20.33
2023-05-01T06:57:31.445Z,20.58
2023-05-01T07:02:33.764Z,20.73
2023-05-01T07:07:37.519Z,20.74
2023-05-01T07:12:41.181Z,20.88
2023-05-01T07:17:43.759Z,20.99
2023-05-01T07:22:46.611Z,21.05
2023-05-01T07:27:49.141Z,21.18
2023-05-01T07:32:51.863Z,21.38
2023-05-01T07:37:54.665Z,21.45
2023-05-01T07:42:57.513Z,21.02
2023-05-01T07:48:00.389Z,21.43
2023-05-01T07:53:02.889Z,21.62
2023-05-01T07:58:18.197Z,21.19
2023-05-01T08:03:22.308Z,21.88
2023-05-01T08:08:33.136Z,21.37
2023-05-01T08:13:35.758Z,20.75
2023-05-01T08:18:38.144Z,21.51
2023-05-01T08:23:40.437Z,21.06
2023-05-01T08:28:42.693Z,21.34
2023-05-01T08:33:48.997Z,21.35
2023-05-01T08:38:53.779Z,22.09
2023-05-01T08:44:01.821Z,22.13
2023-05-01T08:49:06.033Z,21.69
2023-05-01T08:54:09.978Z,21.90
2023-05-01T08:59:15.044Z,22.46
2023-05-01T09:04:18.422Z,22.52
2023-05-01T09:09:20.810Z,22.68
2023-05-01T09:14:26.319Z,22.93
2023-05-01T09:19:35.172Z,22.74
2023-05-01T09:24:53.810Z,23.83
2023-05-01T09:29:59.307Z,24.00
2023-05-01T09:35:15.147Z,24.28
2023-05-01T09:40:17.544Z,23.56
2023-05-01T09:45:20.956Z,23.75
2023-05-01T09:50:37.455Z,24.21
2023-05-01T09:55:41.844Z,24.32
2023-05-01T10:00:50.528Z,23.98
2023-05-01T10:06:04.551Z,23.85
2023-05-01T10:11:07.656Z,24.05
2023-05-01T10:16:30.282Z,24.45
2023-05-01T10:21:36.823Z,25.38
2023-05-01T10:26:40.082Z,24.44
2023-05-01T10:31:42.749Z,25.37
2023-05-01T10:37:07.630Z,24.93
2023-05-01T10:42:15.235Z,25.30
2023-05-01T10:47:30.309Z,25.36
2023-05-01T10:53:14.930Z,24.77
2023-05-01T10:58:41.223Z,24.89
2023-05-01T11:03:45.725Z,24.74
2023-05-01T11:08:48.262Z,25.39
2023-05-01T11:14:02.632Z,25.25
2023-05-01T11:19:10.242Z,25.37
2023-05-01T11:24:25.807Z,25.18
2023-05-01T11:29:40.766Z,25.35
2023-05-01T11:34:43.543Z,25.71
2023-05-01T11:39:53.150Z,25.39
2023-05-01T11:45:16.720Z,24.92
2023-05-01T11:51:03.965Z,24.66
2023-05-01T12:01:45.095Z,25.18
2023-05-01T12:06:48.462Z,25.21
2023-05-01T12:11:54.615Z,25.50
2023-05-01T12:16:57.531Z,25.03
2023-05-01T12:22:09.797Z,26.26
2023-05-01T12:27:12.185Z,25.73
2023-05-01T12:32:35.608Z,25.62
2023-05-01T12:37:42.641Z,25.92
2023-05-01T12:42:45.351Z,25.93
2023-05-01T12:47:52.585Z,26.50
2023-05-01T12:53:14.306Z,26.42
2023-05-01T12:58:22.222Z,27.11
2023-05-01T13:03:41.291Z,26.49
2023-05-01T13:08:43.968Z,26.04
2023-05-01T13:13:47.811Z,25.90
2023-05-01T13:18:52.040Z,25.96
2023-05-01T13:24:05.695Z,25.84
2023-05-01T13:29:17.952Z,25.87
2023-05-01T13:34:32.141Z,26.24
2023-05-01T13:39:37.496Z,25.54
2023-05-01T13:44:56.862Z,25.72
2023-05-01T13:50:01.403Z,26.16
2023-05-01T13:55:09.113Z,25.96
2023-05-01T14:00:19.687Z,26.32
2023-05-01T14:05:29.495Z,25.99
2023-05-01T14:10:32.540Z,26.02
2023-05-01T14:15:35.152Z,25.89
2023-05-01T14:20:37.797Z,25.63
2023-05-01T14:25:40.885Z,25.84
2023-05-01T14:30:45.117Z,26.18
2023-05-01T14:35:52.868Z,25.97
2023-05-01T14:40:55.330Z,25.82
2023-05-01T14:45:59.974Z,25.44
2023-05-01T14:51:15.076Z,25.70
2023-05-01T14:56:23.063Z,25.30
2023-05-01T15:01:25.775Z,24.56
2023-05-01T15:06:29.343Z,25.44
2023-05-01T15:11:32.215Z,24.49
2023-05-01T15:16:34.747Z,25.08
2023-05-01T15:21:37.530Z,24.94
2023-05-01T15:26:43.205Z,24.52
2023-05-01T15:31:45.816Z,23.99
2023-05-01T15:36:49.907Z,24.27
2023-05-01T15:41:53.209Z,24.28
2023-05-01T15:47:02.496Z,25.04
2023-05-01T15:52:05.464Z,24.31
2023-05-01T15:57:20.036Z,24.31
2023-05-01T16:02:23.021Z,24.01
2023-05-01T16:07:38.918Z,23.99
2023-05-01T16:12:44.263Z,23.41
2023-05-01T16:17:47.267Z,23.23
2023-05-01T16:22:51.975Z,23.09
2023-05-01T16:27:57.118Z,23.05
2023-05-01T16:33:09.306Z,22.91
2023-05-01T16:38:11.903Z,23.41
2023-05-01T16:43:14.760Z,23.35
2023-05-01T16:48:26.782Z,22.39
2023-05-01T16:53:39.732Z,22.31
2023-05-01T16:58:49.332Z,22.42
2023-05-01T17:03:52.299Z,22.29
2023-05-01T17:08:59.971Z,22.55
2023-05-01T17:14:09.800Z,22.02
2023-05-01T17:19:12.430Z,22.23
2023-05-01T17:24:14.834Z,21.97
2023-05-01T17:29:17.332Z,22.17
2023-05-01T17:34:22.808Z,21.28
2023-05-01T17:39:28.150Z,21.28
2023-05-01T17:44:31.104Z,21.42
2023-05-01T17:49:54.370Z,20.98
2023-05-01T17:54:56.953Z,21.40
2023-05-01T18:00:01.331Z,21.63
2023-05-01T18:05:17.925Z,20.58
2023-05-01T18:15:25.627Z,20.26
2023-05-01T18:20:31.238Z,21.25
2023-05-01T18:25:33.588Z,21.06
2023-05-01T18:30:54.414Z,20.62
2023-05-01T18:36:07.261Z,20.08
2023-05-01T18:47:19.039Z,20.33
2023-05-01T18:58:17.290Z,20.25
2023-05-01T19:03:20.275Z,20.14
2023-05-01T19:08:33.528Z,19.92
2023-05-01T19:14:08.709Z,20.43
2023-05-01T19:19:11.194Z,19.31
2023-05-01T19:24:21.369Z,19.78
2023-05-01T19:29:53.064Z,19.43
2023-05-01T19:40:20.818Z,20.05
2023-05-01T19:45:25.585Z,19.73
2023-05-01T19:50:31.334Z,19.27
2023-05-01T19:55:35.539Z,18.83
2023-05-01T20:00:38.046Z,19.36
2023-05-01T20:05:43.833Z,19.98
2023-05-01T20:10:46.749Z,19.74
2023-05-01T20:15:54.260Z,19.19
2023-05-01T20:20:56.686Z,19.23
2023-05-01T20:26:00.980Z,18.83
2023-05-01T20:31:06.190Z,18.59
2023-05-01T20:36:08.937Z,19.01
2023-05-01T20:41:11.714Z,19.21
2023-05-01T20:46:17.237Z,19.34
2023-05-01T20:51:19.744Z,18.72
2023-05-01T20:56:26.856Z,19.32
2023-05-01T21:01:31.893Z,19.07
2023-05-01T21:06:36.648Z,18.80
2023-05-01T21:11:42.073Z,18.38
2023-05-01T21:16:45.652Z,18.97
2023-05-01T21:21:48.188Z,18.74
2023-05-01T21:26:50.953Z,19.09
2023-05-01T21:31:53.570Z,18.18
2023-05-01T21:36:56.139Z,19.11
2023-05-01T21:41:58.995Z,18.44
2023-05-01T21:47:02.167Z,18.54
2023-05-01T21:52:04.624Z,18.34
2023-05-01T21:57:08.502Z,18.80
2023-05-01T22:02:12.623Z,18.11
2023-05-01T22:07:17.345Z,18.63
2023-05-01T22:12:22.129Z,18.23
2023-05-01T22:17:24.724Z,18.64
2023-05-01T22:22:30.571Z,18.41
2023-05-01T22:27:33.912Z,18.77
2023-05-01T22:32:36.598Z,18.50
2023-05-01T22:37:38.881Z,18.08
2023-05-01T22:42:41.547Z,17.85
2023-05-01T22:47:43.888Z,18.71
2023-05-01T22:52:46.640Z,18.80
2023-05-01T22:57:49.099Z,18.01
2023-05-01T23:02:51.663Z,17.96
2023-05-01T23:07:54.164Z,18.61
2023-05-01T23:12:56.802Z,18.35
2023-05-01T23:17:59.420Z,18.19
2023-05-01T23:23:05.805Z,17.94
2023-05-01T23:28:08.918Z,18.85
2023-05-01T23:33:14.657Z,18.55
2023-05-01T23:38:17.400Z,18.00
2023-05-01T23:43:20.626Z,18.78
2023-05-01T23:48:23.056Z,18.34
2023-05-01T23:53:25.641Z,18.39
2023-05-01T23:58:28.003Z,17.99
